Randolph Air Force Base
KRND : now visible

Airfield :











YOU CAN JOIN US ON...

 
LOGIN :

Register | Disclaimer

   EN    FR    IT 

 









Legend :    VFR   Marginal VFR   IFR   Intensive IFR   Very Intensive IFR
Visi :
Ceiling :
>= 8 km
>= 3000ft
5 to 8 km
1000 to 3000 ft
1500m to 5 km
500 to 1000 ft
800 to 1500m
200 to 500 ft
< 800m
< 200 ft
Symbols :   Thunderstorms  Fog  Heavy snow  Heavy precipitations  Wind > 20 kt






- Airport Elevation : 761 ft


KRND - Randolph Air Force Base

CURRENT METAR :
  • 141956Z AUTO 12003KT 10SM CLR 24/08 A2977 RMK AO2 SLP078 T02430078

EXPIRED METARs :
  • 141856Z AUTO 07004KT 10SM CLR 23/08 A2981 RMK AO2 SLP091 T02280077
  • 141756Z AUTO 07003KT 10SM CLR 21/08 A2985 RMK AO2 SLP105 T02090078 10209 20056 58008

TAF TAF KRND
Valid from the 13 at 18:00 until the 15 at 00:00 UTC


131800Z 1318/1424 26012G20KT 9999 FEW250 510005 QNH2985INS
TEMPO 1318/1323 26015G25KT
BECMG 1322/1323 28008KT 9999 FEW250 QNH2981INS TX22/1321Z TN08/1412Z LAST NO AMDS AFT 1401 NEXT 1518



MET'MAP, your aeronautical weather chart ! - Copyright ORBIFLY December 2007 - Disclaimer

ORBIFLY MET'MAP TEAM :

Programming & Development : Alexandra Zaïnal
Concept & original design : Baudouin d'Aumeries
Assistance for programming : Marc-Olivier Méhu
Technical & hardware support : Manuel Goepfert

Contact : metmap@orbifly.com




SOURCES & CREDITS :

   NOAA       Earth
Advisory